createdAt,value
2019-05-11T00:00:00.104Z,99.99
2019-05-11T00:01:00.120Z,99.99
2019-05-11T00:02:00.138Z,99.99
2019-05-11T00:03:00.225Z,99.99
2019-05-11T00:04:00.229Z,99.99
2019-05-11T00:05:00.192Z,99.99
2019-05-11T00:06:00.210Z,99.99
2019-05-11T00:07:00.230Z,99.99
2019-05-11T00:08:00.241Z,99.99
2019-05-11T00:09:00.258Z,99.99
2019-05-11T00:10:00.285Z,99.99
2019-05-11T00:11:00.296Z,99.99
2019-05-11T00:12:00.326Z,99.99
2019-05-11T00:13:00.328Z,99.99
2019-05-11T00:14:00.349Z,99.99
2019-05-11T00:15:00.369Z,99.99
2019-05-11T00:16:00.381Z,99.99
2019-05-11T00:17:00.401Z,99.99
2019-05-11T00:18:00.415Z,99.99
2019-05-11T00:19:00.436Z,99.99
2019-05-11T00:20:00.485Z,99.99
2019-05-11T00:21:00.468Z,99.99
2019-05-11T00:22:00.482Z,99.99
2019-05-11T00:23:00.503Z,99.99
2019-05-11T00:24:00.519Z,99.99
2019-05-11T00:25:00.534Z,99.99
2019-05-11T00:26:00.558Z,99.99
2019-05-11T00:27:00.571Z,99.99
2019-05-11T00:28:00.620Z,99.99
2019-05-11T00:29:00.606Z,99.99
2019-05-11T00:30:00.630Z,99.99
2019-05-11T00:31:00.645Z,99.99
2019-05-11T00:32:00.655Z,99.99
2019-05-11T00:33:00.673Z,99.99
2019-05-11T00:34:00.706Z,99.99
2019-05-11T00:35:00.707Z,99.99
2019-05-11T00:36:00.727Z,99.99
2019-05-11T00:37:00.742Z,99.99
2019-05-11T00:38:00.760Z,99.99
2019-05-11T00:39:00.776Z,99.99
2019-05-11T00:40:13.377Z,99.99
2019-05-11T00:41:00.819Z,99.99
2019-05-11T00:42:00.827Z,99.99
2019-05-11T00:43:00.845Z,99.99
2019-05-11T00:44:00.874Z,99.99
2019-05-11T00:45:00.887Z,99.99
2019-05-11T00:46:00.894Z,99.99
2019-05-11T00:47:00.913Z,99.99
2019-05-11T00:48:00.929Z,99.99
2019-05-11T00:49:00.950Z,99.99
2019-05-11T00:50:00.970Z,99.99
2019-05-11T00:51:00.987Z,99.99
2019-05-11T00:52:00.999Z,99.99
2019-05-11T00:53:01.016Z,99.99
2019-05-11T00:54:01.033Z,99.99
2019-05-11T00:55:01.051Z,99.99
2019-05-11T00:56:01.068Z,99.99
2019-05-11T00:57:01.083Z,99.99
2019-05-11T00:58:01.107Z,99.99
2019-05-11T00:59:01.121Z,99.99
2019-05-11T01:00:01.137Z,99.99
2019-05-11T01:01:01.153Z,99.99
2019-05-11T01:02:01.171Z,99.99
2019-05-11T01:03:01.188Z,99.99
2019-05-11T01:04:01.227Z,99.99
2019-05-11T01:05:01.373Z,99.99
2019-05-11T01:06:01.246Z,99.99
2019-05-11T01:07:01.259Z,99.99
2019-05-11T01:08:01.273Z,99.99
2019-05-11T01:09:01.289Z,99.99
2019-05-11T01:10:01.305Z,99.99
2019-05-11T01:11:01.323Z,99.99
2019-05-11T01:12:01.343Z,99.99
2019-05-11T01:13:01.359Z,99.99
2019-05-11T01:14:01.376Z,99.99
2019-05-11T01:15:01.392Z,99.99
2019-05-11T01:16:01.411Z,99.99
2019-05-11T01:17:01.427Z,99.99
2019-05-11T01:18:01.445Z,99.99
2019-05-11T01:19:01.459Z,99.99
2019-05-11T01:20:01.486Z,99.99
2019-05-11T01:21:01.496Z,99.99
2019-05-11T01:22:01.510Z,99.99
2019-05-11T01:23:01.536Z,99.99
2019-05-11T01:24:01.546Z,99.99
2019-05-11T01:25:01.568Z,99.99
2019-05-11T01:26:01.585Z,99.99
2019-05-11T01:27:01.596Z,99.99
2019-05-11T01:28:01.616Z,99.99
2019-05-11T01:29:01.632Z,99.99
2019-05-11T01:30:01.647Z,99.99
2019-05-11T01:31:01.666Z,99.99
2019-05-11T01:32:01.686Z,99.99
2019-05-11T01:33:01.699Z,99.99
2019-05-11T01:34:01.716Z,99.99
2019-05-11T01:35:01.744Z,99.99
2019-05-11T01:36:01.752Z,99.99
2019-05-11T01:37:01.767Z,99.99
2019-05-11T01:38:01.785Z,99.99
2019-05-11T01:39:01.804Z,99.99
2019-05-11T01:40:01.822Z,99.99
2019-05-11T01:41:01.838Z,99.99
2019-05-11T01:42:01.855Z,99.99
2019-05-11T01:43:01.879Z,99.99
2019-05-11T01:44:01.887Z,99.99
2019-05-11T01:45:01.906Z,99.99
2019-05-11T01:46:01.921Z,99.99
2019-05-11T01:47:01.941Z,99.99
2019-05-11T01:48:01.954Z,99.99
2019-05-11T01:49:01.971Z,99.99
2019-05-11T01:50:01.991Z,99.99
2019-05-11T01:51:02.022Z,99.99
2019-05-11T01:52:02.096Z,99.99
2019-05-11T01:53:02.042Z,99.99
2019-05-11T01:54:02.059Z,99.99
2019-05-11T01:55:02.075Z,99.99
2019-05-11T01:56:02.091Z,99.99
2019-05-11T01:57:02.107Z,99.99
2019-05-11T01:58:02.178Z,99.99
2019-05-11T01:59:02.144Z,99.99
2019-05-11T02:00:02.182Z,99.99
2019-05-11T02:01:02.176Z,99.99
2019-05-11T02:02:02.195Z,99.99
2019-05-11T02:03:02.210Z,99.99
2019-05-11T02:04:02.233Z,99.99
2019-05-11T02:05:02.245Z,99.99
2019-05-11T02:06:02.262Z,99.99
2019-05-11T02:07:02.280Z,99.99
2019-05-11T02:08:02.307Z,99.99
2019-05-11T02:09:02.312Z,99.99
2019-05-11T02:10:02.333Z,99.99
2019-05-11T02:11:15.367Z,99.99
2019-05-11T02:12:02.363Z,99.99
2019-05-11T02:13:02.376Z,99.99
2019-05-11T02:14:02.394Z,99.99
2019-05-11T02:15:02.452Z,99.99
2019-05-11T02:16:02.433Z,99.99
2019-05-11T02:17:02.444Z,99.99
2019-05-11T02:18:02.464Z,99.99
2019-05-11T02:19:02.480Z,99.99
2019-05-11T02:20:02.497Z,99.99
2019-05-11T02:21:02.514Z,99.99
2019-05-11T02:22:02.530Z,99.99
2019-05-11T02:23:02.549Z,99.99
2019-05-11T02:24:02.565Z,99.99
2019-05-11T02:25:02.588Z,99.99
2019-05-11T02:26:02.608Z,99.99
2019-05-11T02:27:02.619Z,99.99
2019-05-11T02:28:02.632Z,99.99
2019-05-11T02:29:02.650Z,99.99
2019-05-11T02:30:02.667Z,99.99
2019-05-11T02:31:02.683Z,99.99
2019-05-11T02:32:02.700Z,99.99
2019-05-11T02:33:02.724Z,99.99
2019-05-11T02:34:02.749Z,99.99
2019-05-11T02:35:02.749Z,99.99
2019-05-11T02:36:02.766Z,99.99
2019-05-11T02:37:02.785Z,99.99
2019-05-11T02:38:02.802Z,99.99
2019-05-11T02:39:02.818Z,99.99
2019-05-11T02:40:02.838Z,99.99
2019-05-11T02:41:02.862Z,99.99
2019-05-11T02:42:02.868Z,99.99
2019-05-11T02:43:02.891Z,99.99
2019-05-11T02:44:02.947Z,99.99
2019-05-11T02:45:02.924Z,99.99
2019-05-11T02:46:02.935Z,99.99
2019-05-11T02:47:02.954Z,99.99
2019-05-11T02:48:02.969Z,99.99
2019-05-11T02:49:02.989Z,99.99
2019-05-11T02:50:03.004Z,99.99
2019-05-11T02:51:03.030Z,99.99
2019-05-11T02:52:03.037Z,99.99
2019-05-11T02:53:03.053Z,99.99
2019-05-11T02:54:03.078Z,99.99
2019-05-11T02:55:03.090Z,99.99
2019-05-11T02:56:03.104Z,99.99
2019-05-11T02:57:03.122Z,99.99
2019-05-11T02:58:03.143Z,99.99
2019-05-11T02:59:03.169Z,99.99
2019-05-11T03:00:03.182Z,99.99
2019-05-11T03:01:03.190Z,99.99
2019-05-11T03:02:03.210Z,99.99
2019-05-11T03:03:03.230Z,99.99
2019-05-11T03:04:03.257Z,99.99
2019-05-11T03:05:03.255Z,99.99
2019-05-11T03:06:03.287Z,99.99
2019-05-11T03:07:03.301Z,99.99
2019-05-11T03:08:03.320Z,99.99
2019-05-11T03:09:03.323Z,99.99
2019-05-11T03:10:03.345Z,99.99
2019-05-11T03:11:03.357Z,99.99
2019-05-11T03:12:03.373Z,99.99
2019-05-11T03:13:03.390Z,99.99
2019-05-11T03:14:03.412Z,99.99
2019-05-11T03:15:03.451Z,99.99
2019-05-11T03:16:03.445Z,99.99
2019-05-11T03:17:03.462Z,99.99
2019-05-11T03:18:03.471Z,99.99
2019-05-11T03:19:03.492Z,99.99
2019-05-11T03:20:03.517Z,99.99
2019-05-11T03:21:03.529Z,99.99
2019-05-11T03:22:03.538Z,99.99
2019-05-11T03:23:03.554Z,99.99
2019-05-11T03:24:03.650Z,99.99
2019-05-11T03:25:03.593Z,99.99
2019-05-11T03:26:03.712Z,99.99
2019-05-11T03:27:03.639Z,99.99
2019-05-11T03:28:03.642Z,99.99
2019-05-11T03:29:03.656Z,99.99
2019-05-11T03:30:03.695Z,99.99
2019-05-11T03:31:03.693Z,99.99
2019-05-11T03:32:03.707Z,99.99
2019-05-11T03:33:03.752Z,99.99
2019-05-11T03:34:03.754Z,99.99
2019-05-11T03:35:03.758Z,99.99
2019-05-11T03:36:03.777Z,99.99
2019-05-11T03:37:03.795Z,99.99
2019-05-11T03:38:03.821Z,99.99
2019-05-11T03:39:03.825Z,99.99
2019-05-11T03:40:03.841Z,99.99
2019-05-11T03:41:03.863Z,99.99
2019-05-11T03:42:14.239Z,99.99
2019-05-11T03:43:03.919Z,99.99
2019-05-11T03:44:03.912Z,99.99
2019-05-11T03:45:03.931Z,99.99
2019-05-11T03:46:03.943Z,99.99
2019-05-11T03:47:04.219Z,99.99
2019-05-11T03:48:03.983Z,99.99
2019-05-11T03:49:04.001Z,99.99
2019-05-11T03:50:04.013Z,99.99
2019-05-11T03:51:04.026Z,99.99
2019-05-11T03:52:04.039Z,99.99
2019-05-11T03:53:04.060Z,99.99
2019-05-11T03:54:04.073Z,99.99
2019-05-11T03:55:04.099Z,99.99
2019-05-11T03:56:04.109Z,99.99
2019-05-11T03:57:04.124Z,99.99
2019-05-11T03:58:04.246Z,99.99
2019-05-11T03:59:04.164Z,99.99
2019-05-11T04:00:04.175Z,99.99
2019-05-11T04:01:04.194Z,99.99
2019-05-11T04:02:04.212Z,99.99
2019-05-11T04:03:04.272Z,99.99
2019-05-11T04:04:04.249Z,99.99
2019-05-11T04:05:04.258Z,99.99
2019-05-11T04:06:04.275Z,99.99
2019-05-11T04:07:04.298Z,99.99
2019-05-11T04:08:04.314Z,99.99
2019-05-11T04:09:04.326Z,99.99
2019-05-11T04:10:04.347Z,99.99
2019-05-11T04:11:04.371Z,99.99
2019-05-11T04:12:04.376Z,99.99
2019-05-11T04:13:04.393Z,99.99
2019-05-11T04:14:04.415Z,99.99
2019-05-11T04:15:04.428Z,99.99
2019-05-11T04:16:04.444Z,99.99
2019-05-11T04:17:04.461Z,99.99
2019-05-11T04:18:04.477Z,99.99
2019-05-11T04:19:04.493Z,99.99
2019-05-11T04:20:04.550Z,99.99
2019-05-11T04:21:04.526Z,99.99
2019-05-11T04:22:04.541Z,99.99
2019-05-11T04:23:04.559Z,99.99
2019-05-11T04:24:04.575Z,99.99
2019-05-11T04:25:04.599Z,99.99
2019-05-11T04:26:04.622Z,99.99
2019-05-11T04:27:04.626Z,99.99
2019-05-11T04:28:04.646Z,99.99
2019-05-11T04:29:04.669Z,99.99
2019-05-11T04:30:04.673Z,99.99
2019-05-11T04:31:04.693Z,99.99
2019-05-11T04:32:04.710Z,99.99
2019-05-11T04:33:04.726Z,99.99
2019-05-11T04:34:04.743Z,99.99
2019-05-11T04:35:04.757Z,99.99
2019-05-11T04:36:04.783Z,99.99
2019-05-11T04:37:04.790Z,99.99
2019-05-11T04:38:04.808Z,99.99
2019-05-11T04:39:04.826Z,99.99
2019-05-11T04:40:04.845Z,99.99
2019-05-11T04:41:04.864Z,99.99
2019-05-11T04:42:04.878Z,99.99
2019-05-11T04:43:04.898Z,99.99
2019-05-11T04:44:04.918Z,99.99
2019-05-11T04:45:04.923Z,99.99
2019-05-11T04:46:04.941Z,99.99
2019-05-11T04:47:04.957Z,99.99
2019-05-11T04:48:04.978Z,99.99
2019-05-11T04:49:04.997Z,99.99
2019-05-11T04:50:05.009Z,99.99
2019-05-11T04:51:05.024Z,99.99
2019-05-11T04:52:05.039Z,99.99
2019-05-11T04:53:05.057Z,99.99
2019-05-11T04:54:05.074Z,99.99
2019-05-11T04:55:05.104Z,99.99
2019-05-11T04:56:05.108Z,99.99
2019-05-11T04:57:05.122Z,99.99
2019-05-11T04:58:05.139Z,99.99
2019-05-11T04:59:05.155Z,99.99
2019-05-11T05:00:05.223Z,99.99
2019-05-11T05:01:05.187Z,99.99
2019-05-11T05:02:05.209Z,99.99
2019-05-11T05:03:05.221Z,99.99
2019-05-11T05:04:13.885Z,99.99
2019-05-11T05:05:05.259Z,99.99
2019-05-11T05:06:22.348Z,99.99
2019-05-11T05:07:10.042Z,99.99
2019-05-11T05:08:09.586Z,99.99
2019-05-11T05:09:05.362Z,99.99
2019-05-11T05:10:05.341Z,99.99
2019-05-11T05:11:05.355Z,99.99
2019-05-11T05:12:08.421Z,99.99
2019-05-11T05:13:10.595Z,99.99
2019-05-11T05:14:08.379Z,99.99
2019-05-11T05:15:05.424Z,99.99
2019-05-11T05:16:05.441Z,99.99
2019-05-11T05:17:05.456Z,99.99
2019-05-11T05:18:05.474Z,99.99
2019-05-11T05:19:05.489Z,99.99
2019-05-11T05:20:05.506Z,99.99
2019-05-11T05:21:05.524Z,99.99
2019-05-11T05:22:05.545Z,99.99
2019-05-11T05:23:05.558Z,99.99
2019-05-11T05:24:05.579Z,99.99
2019-05-11T05:25:05.620Z,99.99
2019-05-11T05:26:05.608Z,99.99
2019-05-11T05:27:05.625Z,99.99
2019-05-11T05:28:05.642Z,99.99
2019-05-11T05:29:05.658Z,99.99
2019-05-11T05:30:05.682Z,99.99
2019-05-11T05:31:05.695Z,99.99
2019-05-11T05:32:05.709Z,99.99
2019-05-11T05:33:05.734Z,99.99
2019-05-11T05:34:05.754Z,99.99
2019-05-11T05:35:05.759Z,99.99
2019-05-11T05:36:05.778Z,99.99
2019-05-11T05:37:05.792Z,99.99
2019-05-11T05:38:05.808Z,99.99
2019-05-11T05:39:08.752Z,99.99
2019-05-11T05:40:05.853Z,99.99
2019-05-11T05:41:05.860Z,99.99
2019-05-11T05:42:05.879Z,99.99
2019-05-11T05:43:05.892Z,99.99
2019-05-11T05:44:05.913Z,99.99
2019-05-11T05:45:05.929Z,99.99
2019-05-11T05:46:05.943Z,99.99
2019-05-11T05:47:05.961Z,99.99
2019-05-11T05:48:06.092Z,99.99
2019-05-11T05:49:05.996Z,99.99
2019-05-11T05:50:06.015Z,99.99
2019-05-11T05:51:06.028Z,99.99
2019-05-11T05:52:06.265Z,99.99
2019-05-11T05:53:06.137Z,99.99
2019-05-11T05:54:06.082Z,99.99
2019-05-11T05:55:06.098Z,99.99
2019-05-11T05:56:06.117Z,99.99
2019-05-11T05:57:06.140Z,99.99
2019-05-11T05:58:06.158Z,99.99
2019-05-11T05:59:06.177Z,99.99
2019-05-11T06:00:06.186Z,99.99
2019-05-11T06:01:09.825Z,99.99
2019-05-11T06:02:06.218Z,99.99
2019-05-11T06:03:06.235Z,99.99
2019-05-11T06:04:06.253Z,99.99
2019-05-11T06:05:06.276Z,99.99
2019-05-11T06:06:06.289Z,99.99
2019-05-11T06:07:06.313Z,99.99
2019-05-11T06:08:06.328Z,99.99
2019-05-11T06:09:06.347Z,99.99
2019-05-11T06:10:06.389Z,99.99
2019-05-11T06:11:06.373Z,99.99
2019-05-11T06:12:06.392Z,99.99
2019-05-11T06:13:06.421Z,99.99
2019-05-11T06:14:06.435Z,99.99
2019-05-11T06:15:06.644Z,99.99
2019-05-11T06:16:06.461Z,99.99
2019-05-11T06:17:06.489Z,99.99
2019-05-11T06:18:06.495Z,99.99
2019-05-11T06:19:06.515Z,99.99
2019-05-11T06:20:06.840Z,99.99
2019-05-11T06:21:06.559Z,99.99
2019-05-11T06:22:06.570Z,99.99
2019-05-11T06:23:06.585Z,99.99
2019-05-11T06:24:08.295Z,99.99
2019-05-11T06:25:06.628Z,99.99
2019-05-11T06:26:06.635Z,99.99
2019-05-11T06:27:06.664Z,99.99
2019-05-11T06:28:06.671Z,99.99
2019-05-11T06:29:06.685Z,99.99
2019-05-11T06:30:06.703Z,99.99
2019-05-11T06:31:06.723Z,99.99
2019-05-11T06:32:06.740Z,99.99
2019-05-11T06:33:06.756Z,99.99
2019-05-11T06:34:06.774Z,99.99
2019-05-11T06:35:06.794Z,99.99
2019-05-11T06:36:06.809Z,99.99
2019-05-11T06:37:06.824Z,99.99
2019-05-11T06:38:06.844Z,99.99
2019-05-11T06:39:06.863Z,99.99
2019-05-11T06:40:06.880Z,99.99
2019-05-11T06:41:06.893Z,99.99
2019-05-11T06:42:06.914Z,99.99
2019-05-11T06:43:06.932Z,99.99
2019-05-11T06:44:06.955Z,99.99
2019-05-11T06:45:06.967Z,99.99
2019-05-11T06:46:06.988Z,99.99
2019-05-11T06:47:06.999Z,99.99
2019-05-11T06:48:07.031Z,99.99
2019-05-11T06:49:07.035Z,99.99
2019-05-11T06:50:07.056Z,99.99
2019-05-11T06:51:07.068Z,99.99
2019-05-11T06:52:07.101Z,99.99
2019-05-11T06:53:07.105Z,99.99
2019-05-11T06:54:07.133Z,99.99
2019-05-11T06:55:07.141Z,99.99
2019-05-11T06:56:07.158Z,99.99
2019-05-11T06:57:07.178Z,99.99
2019-05-11T06:58:07.193Z,99.99
2019-05-11T06:59:07.211Z,99.99
2019-05-11T07:00:07.226Z,99.99
2019-05-11T07:01:07.245Z,99.99
2019-05-11T07:02:07.269Z,99.99
2019-05-11T07:03:07.280Z,99.99
2019-05-11T07:04:07.303Z,99.99
2019-05-11T07:05:07.316Z,99.99
2019-05-11T07:06:07.329Z,99.99
2019-05-11T07:07:07.349Z,99.99
2019-05-11T07:08:07.365Z,99.99
2019-05-11T07:09:07.381Z,99.99
2019-05-11T07:10:07.402Z,99.99
2019-05-11T07:11:07.416Z,99.99
2019-05-11T07:12:07.550Z,99.99
2019-05-11T07:13:07.451Z,99.99
2019-05-11T07:14:20.090Z,99.99
2019-05-11T07:15:07.490Z,99.99
2019-05-11T07:16:07.506Z,99.99
2019-05-11T07:17:07.520Z,99.99
2019-05-11T07:18:07.553Z,99.99
2019-05-11T07:19:07.558Z,99.99
2019-05-11T07:20:07.581Z,99.99
2019-05-11T07:21:07.591Z,99.99
2019-05-11T07:22:07.611Z,99.99
2019-05-11T07:23:07.628Z,99.99
2019-05-11T07:24:07.647Z,99.99
2019-05-11T07:25:07.666Z,99.99
2019-05-11T07:26:07.683Z,99.99
2019-05-11T07:27:07.700Z,99.99
2019-05-11T07:28:07.717Z,99.99
2019-05-11T07:29:07.734Z,99.99
2019-05-11T07:30:07.761Z,99.99
2019-05-11T07:31:07.775Z,99.99
2019-05-11T07:32:19.653Z,99.99
2019-05-11T07:33:08.132Z,99.99
2019-05-11T07:34:08.176Z,99.99
2019-05-11T07:35:08.646Z,99.99
2019-05-11T07:36:08.438Z,99.99
2019-05-11T07:37:08.327Z,99.99
2019-05-11T07:38:08.413Z,99.99
2019-05-11T07:39:08.415Z,99.99
2019-05-11T07:40:08.309Z,99.99
2019-05-11T07:41:08.718Z,99.99
2019-05-11T07:42:07.971Z,99.99
2019-05-11T07:43:09.844Z,99.99
2019-05-11T07:44:10.098Z,99.99
2019-05-11T07:45:08.843Z,99.99
2019-05-11T07:46:08.041Z,99.99
2019-05-11T07:47:08.061Z,99.99
2019-05-11T07:48:08.148Z,99.99
2019-05-11T07:49:08.822Z,99.99
2019-05-11T07:50:08.365Z,99.99
2019-05-11T07:51:08.874Z,99.99
2019-05-11T07:52:08.151Z,99.99
2019-05-11T07:53:08.343Z,99.99
2019-05-11T07:54:08.570Z,99.99
2019-05-11T07:55:08.731Z,99.99
2019-05-11T07:56:08.443Z,99.99
2019-05-11T07:57:08.238Z,99.99
2019-05-11T07:58:08.257Z,99.99
2019-05-11T07:59:08.281Z,99.99
2019-05-11T08:00:08.294Z,99.99
2019-05-11T08:01:08.782Z,99.99
2019-05-11T08:02:09.016Z,99.99
2019-05-11T08:03:09.053Z,99.27
2019-05-11T08:04:08.366Z,99.99
2019-05-11T08:05:08.808Z,99.66
2019-05-11T08:06:09.021Z,99.75
2019-05-11T08:07:08.429Z,99.85
2019-05-11T08:08:08.821Z,99.75
2019-05-11T08:09:08.670Z,99.99
2019-05-11T08:10:08.547Z,99.75
2019-05-11T08:11:08.495Z,99.75
2019-05-11T08:12:09.061Z,99.80
2019-05-11T08:13:09.255Z,99.71
2019-05-11T08:14:08.550Z,98.94
2019-05-11T08:15:13.001Z,98.32
2019-05-11T08:16:08.588Z,99.18
2019-05-11T08:17:08.814Z,99.23
2019-05-11T08:18:08.737Z,98.56
2019-05-11T08:19:10.777Z,99.23
2019-05-11T08:20:08.662Z,98.66
2019-05-11T08:21:08.994Z,98.94
2019-05-11T08:22:08.768Z,98.56
2019-05-11T08:23:09.168Z,98.66
2019-05-11T08:24:09.251Z,98.47
2019-05-11T08:25:09.341Z,98.47
2019-05-11T08:26:08.776Z,98.22
2019-05-11T08:27:08.797Z,98.22
2019-05-11T08:28:11.813Z,98.99
2019-05-11T08:29:08.832Z,98.42
2019-05-11T08:30:08.847Z,99.08
2019-05-11T08:31:08.870Z,98.80
2019-05-11T08:32:08.888Z,98.80
2019-05-11T08:33:08.904Z,98.99
2019-05-11T08:34:09.082Z,98.56
2019-05-11T08:35:08.941Z,99.04
2019-05-11T08:36:08.960Z,97.89
2019-05-11T08:37:09.027Z,97.03
2019-05-11T08:38:09.033Z,97.37
2019-05-11T08:39:09.015Z,97.03
2019-05-11T08:40:09.033Z,96.56
2019-05-11T08:41:09.050Z,97.32
2019-05-11T08:42:09.072Z,97.32
2019-05-11T08:43:09.097Z,97.03
2019-05-11T08:44:09.144Z,96.56
2019-05-11T08:45:19.472Z,97.03
2019-05-11T08:46:09.145Z,97.22
2019-05-11T08:47:09.172Z,97.08
2019-05-11T08:48:09.182Z,97.75
2019-05-11T08:49:09.203Z,97.37
2019-05-11T08:50:09.228Z,97.75
2019-05-11T08:51:09.237Z,97.85
2019-05-11T08:52:09.257Z,97.66
2019-05-11T08:53:09.277Z,97.75
2019-05-11T08:54:09.302Z,97.75
2019-05-11T08:55:09.314Z,97.66
2019-05-11T08:56:13.153Z,97.17
2019-05-11T08:57:09.353Z,97.56
2019-05-11T08:58:09.367Z,97.71
2019-05-11T08:59:09.389Z,97.03
2019-05-11T09:00:09.406Z,97.42
2019-05-11T09:01:09.423Z,97.51
2019-05-11T09:02:09.445Z,97.51
2019-05-11T09:03:09.463Z,97.03
2019-05-11T09:04:09.481Z,97.51
2019-05-11T09:05:09.499Z,96.56
2019-05-11T09:06:09.520Z,96.75
2019-05-11T09:07:09.540Z,96.27
2019-05-11T09:08:09.558Z,96.27
2019-05-11T09:09:13.204Z,96.37
2019-05-11T09:10:09.592Z,96.37
2019-05-11T09:11:09.611Z,96.41
2019-05-11T09:12:09.643Z,96.98
2019-05-11T09:13:09.655Z,97.22
2019-05-11T09:14:09.673Z,97.08
2019-05-11T09:15:09.686Z,97.37
2019-05-11T09:16:09.705Z,97.85
2019-05-11T09:17:09.725Z,97.75
2019-05-11T09:18:09.742Z,97.75
2019-05-11T09:19:09.762Z,97.27
2019-05-11T09:20:09.782Z,96.98
2019-05-11T09:21:09.797Z,97.75
2019-05-11T09:22:09.819Z,97.17
2019-05-11T09:23:09.837Z,97.17
2019-05-11T09:24:09.856Z,97.22
2019-05-11T09:25:09.878Z,96.84
2019-05-11T09:26:09.894Z,96.27
2019-05-11T09:27:09.918Z,95.70
2019-05-11T09:28:09.930Z,95.51
2019-05-11T09:29:09.948Z,95.32
2019-05-11T09:30:09.967Z,95.32
2019-05-11T09:31:09.986Z,95.61
2019-05-11T09:32:10.006Z,95.46
2019-05-11T09:33:10.027Z,95.46
2019-05-11T09:34:10.042Z,95.56
2019-05-11T09:35:10.058Z,95.89
2019-05-11T09:36:10.113Z,95.32
2019-05-11T09:37:10.095Z,95.03
2019-05-11T09:38:10.116Z,94.84
2019-05-11T09:39:10.139Z,95.03
2019-05-11T09:40:10.152Z,94.84
2019-05-11T09:41:12.255Z,94.65
2019-05-11T09:42:10.189Z,95.03
2019-05-11T09:43:10.208Z,95.08
2019-05-11T09:44:10.230Z,94.22
2019-05-11T09:45:10.253Z,94.12
2019-05-11T09:46:10.266Z,93.74
2019-05-11T09:47:10.285Z,94.41
2019-05-11T09:48:10.304Z,93.84
2019-05-11T09:49:10.322Z,93.88
2019-05-11T09:50:10.342Z,94.56
2019-05-11T09:51:10.360Z,94.74
2019-05-11T09:52:10.379Z,94.74
2019-05-11T09:53:10.404Z,95.03
2019-05-11T09:54:10.415Z,95.22
2019-05-11T09:55:10.433Z,95.22
2019-05-11T09:56:10.455Z,95.41
2019-05-11T09:57:10.470Z,95.61
2019-05-11T09:58:10.490Z,95.22
2019-05-11T09:59:10.511Z,95.22
2019-05-11T10:00:10.536Z,95.22
2019-05-11T10:01:10.548Z,95.32
2019-05-11T10:02:10.567Z,95.41
2019-05-11T10:03:10.586Z,95.41
2019-05-11T10:04:10.603Z,94.93
2019-05-11T10:05:10.626Z,94.98
2019-05-11T10:06:10.640Z,95.79
2019-05-11T10:07:10.661Z,95.70
2019-05-11T10:08:10.677Z,95.61
2019-05-11T10:09:10.698Z,94.74
2019-05-11T10:10:10.721Z,95.41
2019-05-11T10:11:10.738Z,95.56
2019-05-11T10:12:10.753Z,95.89
2019-05-11T10:13:10.777Z,95.61
2019-05-11T10:14:10.790Z,95.89
2019-05-11T10:15:10.812Z,95.61
2019-05-11T10:16:10.883Z,95.17
2019-05-11T10:17:10.848Z,95.27
2019-05-11T10:18:10.865Z,94.60
2019-05-11T10:19:10.885Z,94.41
2019-05-11T10:20:10.904Z,94.12
2019-05-11T10:21:10.921Z,95.41
2019-05-11T10:22:10.942Z,94.84
2019-05-11T10:23:10.959Z,95.03
2019-05-11T10:24:10.980Z,95.22
2019-05-11T10:25:10.997Z,95.03
2019-05-11T10:26:11.017Z,95.41
2019-05-11T10:27:11.033Z,95.22
2019-05-11T10:28:11.055Z,95.41
2019-05-11T10:29:11.069Z,95.70
2019-05-11T10:30:11.091Z,95.41
2019-05-11T10:31:11.113Z,95.41
2019-05-11T10:32:11.136Z,95.51
2019-05-11T10:33:11.147Z,94.93
2019-05-11T10:34:11.166Z,94.84
2019-05-11T10:35:11.184Z,95.51
2019-05-11T10:36:11.208Z,95.03
2019-05-11T10:37:11.233Z,94.93
2019-05-11T10:38:11.247Z,95.41
2019-05-11T10:39:11.261Z,95.27
2019-05-11T10:40:11.278Z,95.27
2019-05-11T10:41:11.297Z,94.79
2019-05-11T10:42:11.317Z,94.79
2019-05-11T10:43:11.335Z,94.51
2019-05-11T10:44:11.351Z,94.31
2019-05-11T10:45:11.382Z,94.12
2019-05-11T10:46:19.534Z,93.93
2019-05-11T10:47:11.411Z,93.65
2019-05-11T10:48:11.431Z,93.93
2019-05-11T10:49:11.455Z,94.31
2019-05-11T10:50:11.464Z,94.22
2019-05-11T10:51:11.484Z,93.93
2019-05-11T10:52:11.503Z,93.55
2019-05-11T10:53:11.527Z,94.03
2019-05-11T10:54:11.548Z,94.31
2019-05-11T10:55:11.562Z,93.65
2019-05-11T10:56:11.583Z,93.17
2019-05-11T10:57:11.598Z,93.46
2019-05-11T10:58:11.619Z,93.17
2019-05-11T10:59:11.635Z,93.07
2019-05-11T11:00:11.660Z,93.12
2019-05-11T11:01:11.675Z,93.36
2019-05-11T11:02:11.693Z,92.79
2019-05-11T11:03:11.715Z,92.79
2019-05-11T11:04:11.732Z,93.07
2019-05-11T11:05:11.751Z,92.97
2019-05-11T11:06:11.771Z,92.41
2019-05-11T11:07:11.793Z,91.74
2019-05-11T11:08:11.809Z,91.64
2019-05-11T11:09:11.833Z,91.55
2019-05-11T11:10:11.845Z,91.07
2019-05-11T11:11:11.863Z,90.35
2019-05-11T11:12:11.885Z,90.21
2019-05-11T11:13:11.903Z,90.16
2019-05-11T11:14:12.223Z,90.11
2019-05-11T11:15:11.942Z,90.40
2019-05-11T11:16:11.960Z,90.59
2019-05-11T11:17:11.981Z,89.87
2019-05-11T11:18:11.998Z,90.06
2019-05-11T11:19:12.020Z,90.31
2019-05-11T11:20:12.039Z,90.31
2019-05-11T11:21:12.058Z,90.50
2019-05-11T11:22:35.439Z,90.50
2019-05-11T11:23:12.096Z,90.73
2019-05-11T11:24:12.120Z,91.60
2019-05-11T11:25:12.140Z,91.69
2019-05-11T11:26:12.154Z,91.98
2019-05-11T11:27:12.175Z,92.36
2019-05-11T11:28:12.193Z,92.36
2019-05-11T11:29:12.210Z,92.17
2019-05-11T11:30:12.232Z,92.55
2019-05-11T11:31:12.247Z,92.26
2019-05-11T11:32:12.267Z,92.36
2019-05-11T11:33:12.286Z,92.07
2019-05-11T11:34:12.307Z,92.26
2019-05-11T11:35:12.326Z,92.60
2019-05-11T11:36:12.481Z,92.12
2019-05-11T11:37:12.362Z,92.83
2019-05-11T11:38:12.386Z,92.17
2019-05-11T11:39:12.404Z,91.78
2019-05-11T11:40:12.424Z,91.78
2019-05-11T11:41:12.436Z,91.69
2019-05-11T11:42:12.464Z,91.41
2019-05-11T11:43:12.474Z,91.78
2019-05-11T11:44:12.500Z,91.02
2019-05-11T11:45:12.511Z,90.93
2019-05-11T11:46:12.608Z,90.59
2019-05-11T11:47:12.552Z,90.40
2019-05-11T11:48:12.582Z,90.40
2019-05-11T11:49:12.587Z,90.11
2019-05-11T11:50:12.603Z,89.06
2019-05-11T11:51:12.624Z,89.25
2019-05-11T11:52:12.648Z,89.16
2019-05-11T11:53:12.667Z,89.25
2019-05-11T11:54:12.690Z,88.68
2019-05-11T11:55:12.700Z,89.25
2019-05-11T11:56:12.750Z,88.97
2019-05-11T11:57:12.738Z,88.97
2019-05-11T11:58:12.762Z,88.87
2019-05-11T11:59:12.774Z,87.92
2019-05-11T12:00:12.794Z,88.20
2019-05-11T12:01:12.811Z,88.78
2019-05-11T12:02:12.835Z,88.97
2019-05-11T12:03:12.851Z,88.82
2019-05-11T12:04:12.869Z,88.44
2019-05-11T12:05:12.891Z,88.25
2019-05-11T12:06:12.911Z,87.54
2019-05-11T12:07:12.933Z,87.63
2019-05-11T12:08:13.302Z,87.73
2019-05-11T12:09:12.967Z,87.54
2019-05-11T12:10:12.986Z,86.87
2019-05-11T12:11:13.005Z,87.25
2019-05-11T12:12:13.029Z,87.63
2019-05-11T12:13:13.043Z,87.73
2019-05-11T12:14:13.060Z,87.77
2019-05-11T12:15:13.089Z,86.82
2019-05-11T12:16:13.099Z,85.86
2019-05-11T12:17:13.120Z,85.38
2019-05-11T12:18:13.136Z,86.15
2019-05-11T12:19:13.157Z,86.15
2019-05-11T12:20:13.179Z,86.43
2019-05-11T12:21:13.195Z,86.34
2019-05-11T12:22:13.215Z,85.86
2019-05-11T12:23:13.234Z,85.96
2019-05-11T12:24:13.257Z,85.67
2019-05-11T12:25:13.272Z,85.00
2019-05-11T12:26:13.294Z,84.91
2019-05-11T12:27:13.314Z,84.91
2019-05-11T12:28:13.333Z,85.10
2019-05-11T12:29:13.351Z,84.43
2019-05-11T12:30:13.371Z,85.19
2019-05-11T12:31:13.398Z,84.52
2019-05-11T12:32:13.415Z,83.95
2019-05-11T12:33:13.428Z,84.33
2019-05-11T12:34:13.447Z,84.33
2019-05-11T12:35:13.467Z,83.95
2019-05-11T12:36:14.088Z,84.43
2019-05-11T12:37:13.509Z,84.33
2019-05-11T12:38:13.562Z,83.76
2019-05-11T12:39:13.554Z,83.28
2019-05-11T12:40:13.573Z,83.42
2019-05-11T12:41:13.585Z,82.94
2019-05-11T12:42:13.603Z,82.18
2019-05-11T12:43:13.625Z,82.08
2019-05-11T12:44:13.644Z,81.41
2019-05-11T12:45:13.664Z,81.60
2019-05-11T12:46:13.700Z,81.13
2019-05-11T12:47:22.311Z,81.03
2019-05-11T12:48:13.723Z,81.22
2019-05-11T12:49:13.769Z,80.93
2019-05-11T12:50:13.760Z,80.46
2019-05-11T12:51:13.782Z,80.55
2019-05-11T12:52:13.803Z,80.74